createdAt,value
2022-11-02T00:00:37.075Z,13.2
2022-11-02T00:01:41.560Z,13.2
2022-11-02T00:02:44.781Z,13.2
2022-11-02T00:03:48.096Z,13.2
2022-11-02T00:04:51.245Z,13.2
2022-11-02T00:05:54.668Z,13.1
2022-11-02T00:06:57.654Z,13.1
2022-11-02T00:08:00.522Z,13.1
2022-11-02T00:09:03.618Z,13.1
2022-11-02T00:10:07.411Z,13.1
2022-11-02T00:11:10.245Z,13.1
2022-11-02T00:12:13.139Z,13
2022-11-02T00:13:15.932Z,13
2022-11-02T00:14:18.175Z,13
2022-11-02T00:15:21.026Z,13
2022-11-02T00:16:23.873Z,13
2022-11-02T00:17:27.748Z,13
2022-11-02T00:18:30.623Z,13
2022-11-02T00:19:33.995Z,13
2022-11-02T00:20:37.054Z,13
2022-11-02T00:21:39.587Z,13
2022-11-02T00:22:42.025Z,13
2022-11-02T00:23:45.518Z,13
2022-11-02T00:24:48.067Z,13
2022-11-02T00:25:51.206Z,12.9
2022-11-02T00:26:54.565Z,12.9
2022-11-02T00:27:58.358Z,12.9
2022-11-02T00:29:01.449Z,12.9
2022-11-02T00:30:04.060Z,12.9
2022-11-02T00:31:07.069Z,12.9
2022-11-02T00:32:10.756Z,12.9
2022-11-02T00:33:14.848Z,12.9
2022-11-02T00:34:17.566Z,12.9
2022-11-02T00:35:20.354Z,12.8
2022-11-02T00:36:23.341Z,12.8
2022-11-02T00:37:26.634Z,12.8
2022-11-02T00:38:29.677Z,12.8
2022-11-02T00:39:32.817Z,12.7
2022-11-02T00:40:34.981Z,12.7
2022-11-02T00:41:37.700Z,12.7
2022-11-02T00:42:40.957Z,12.7
2022-11-02T00:43:43.734Z,12.7
2022-11-02T00:44:46.223Z,12.6
2022-11-02T00:45:49.082Z,12.6
2022-11-02T00:46:52.366Z,12.6
2022-11-02T00:47:55.196Z,12.6
2022-11-02T00:48:59.967Z,12.6
2022-11-02T00:50:03.413Z,12.6
2022-11-02T00:51:05.663Z,12.6
2022-11-02T00:52:08.822Z,12.6
2022-11-02T00:53:12.009Z,12.6
2022-11-02T00:54:15.641Z,12.6
2022-11-02T00:55:18.997Z,12.6
2022-11-02T00:56:21.895Z,12.5
2022-11-02T00:57:24.958Z,12.6
2022-11-02T00:58:27.873Z,12.5
2022-11-02T00:59:30.589Z,12.5
2022-11-02T01:00:33.393Z,12.5
2022-11-02T01:01:36.400Z,12.5
2022-11-02T01:02:40.546Z,12.5
2022-11-02T01:03:44.657Z,12.4
2022-11-02T01:04:48.502Z,12.4
2022-11-02T01:05:51.673Z,12.4
2022-11-02T01:06:54.406Z,12.4
2022-11-02T01:07:56.850Z,12.3
2022-11-02T01:08:59.971Z,12.3
2022-11-02T01:10:03.052Z,12.3
2022-11-02T01:11:06.206Z,12.3
2022-11-02T01:12:08.368Z,12.3
2022-11-02T01:13:11.501Z,12.2
2022-11-02T01:14:14.866Z,12.2
2022-11-02T01:15:17.796Z,12.2
2022-11-02T01:16:20.311Z,12.2
2022-11-02T01:17:22.910Z,12.2
2022-11-02T01:18:25.913Z,12.2
2022-11-02T01:19:29.336Z,12.2
2022-11-02T01:20:33.489Z,12.2
2022-11-02T01:21:36.209Z,12.2
2022-11-02T01:22:39.158Z,12.2
2022-11-02T01:23:42.566Z,12.2
2022-11-02T01:24:45.703Z,12.2
2022-11-02T01:25:49.182Z,12.2
2022-11-02T01:26:52.608Z,12.1
2022-11-02T01:27:56.074Z,12.1
2022-11-02T01:28:59.066Z,12.1
2022-11-02T01:30:02.070Z,12.1
2022-11-02T01:31:04.836Z,12.1
2022-11-02T01:32:08.466Z,12
2022-11-02T01:33:11.053Z,12
2022-11-02T01:34:14.166Z,12
2022-11-02T01:35:17.208Z,12
2022-11-02T01:37:24.948Z,11.9
2022-11-02T01:38:28.050Z,12
2022-11-02T01:39:30.757Z,11.9
2022-11-02T01:40:33.479Z,11.9
2022-11-02T01:41:36.746Z,11.9
2022-11-02T01:42:38.750Z,11.9
2022-11-02T01:43:42.101Z,11.9
2022-11-02T01:44:45.174Z,11.9
2022-11-02T01:45:47.340Z,11.8
2022-11-02T01:46:50.415Z,11.8
2022-11-02T01:47:52.860Z,11.8
2022-11-02T01:48:56.032Z,11.8
2022-11-02T01:49:59.396Z,11.8
2022-11-02T01:51:02.272Z,11.8
2022-11-02T01:52:06.302Z,11.8
2022-11-02T01:53:09.428Z,11.7
2022-11-02T01:54:12.204Z,11.7
2022-11-02T01:55:14.997Z,11.6
2022-11-02T01:56:17.218Z,11.6
2022-11-02T01:57:20.081Z,11.6
2022-11-02T01:58:23.231Z,11.6
2022-11-02T01:59:26.028Z,11.5
2022-11-02T02:00:28.742Z,11.5
2022-11-02T02:01:33.087Z,11.5
2022-11-02T02:02:37.169Z,11.5
2022-11-02T02:03:40.653Z,11.5
2022-11-02T02:04:44.108Z,11.4
2022-11-02T02:05:47.539Z,11.4
2022-11-02T02:06:50.384Z,11.4
2022-11-02T02:07:54.468Z,11.4
2022-11-02T02:08:56.997Z,11.4
2022-11-02T02:09:59.978Z,11.3
2022-11-02T02:11:03.059Z,11.3
2022-11-02T02:12:06.127Z,11.3
2022-11-02T02:13:08.950Z,11.3
2022-11-02T02:14:12.481Z,11.3
2022-11-02T02:15:15.828Z,11.3
2022-11-02T02:16:17.789Z,11.3
2022-11-02T02:17:19.983Z,11.2
2022-11-02T02:18:22.575Z,11.2
2022-11-02T02:19:25.459Z,11.2
2022-11-02T02:20:28.919Z,11.2
2022-11-02T02:21:32.075Z,11.2
2022-11-02T02:22:34.842Z,11.2
2022-11-02T02:23:38.654Z,11.2
2022-11-02T02:24:41.614Z,11.2
2022-11-02T02:25:44.398Z,11.2
2022-11-02T02:26:47.363Z,11.2
2022-11-02T02:27:49.873Z,11.1
2022-11-02T02:28:52.934Z,11.1
2022-11-02T02:29:56.130Z,11.1
2022-11-02T02:30:59.596Z,11.1
2022-11-02T02:32:01.940Z,11.1
2022-11-02T02:33:05.475Z,11.1
2022-11-02T02:34:08.549Z,11
2022-11-02T02:35:11.345Z,11
2022-11-02T02:36:13.585Z,11
2022-11-02T02:37:16.414Z,11
2022-11-02T02:38:20.526Z,11
2022-11-02T02:39:24.632Z,11.1
2022-11-02T02:40:28.302Z,11
2022-11-02T02:41:31.175Z,11
2022-11-02T02:42:34.176Z,11.1
2022-11-02T02:43:37.166Z,11
2022-11-02T02:44:39.612Z,11
2022-11-02T02:45:42.682Z,11
2022-11-02T02:46:51.004Z,11
2022-11-02T02:47:58.969Z,11
2022-11-02T02:49:01.952Z,11
2022-11-02T02:50:04.276Z,11
2022-11-02T02:51:06.828Z,11
2022-11-02T02:52:09.971Z,11
2022-11-02T02:53:13.407Z,11
2022-11-02T02:54:16.735Z,11
2022-11-02T02:55:20.954Z,11
2022-11-02T02:56:24.112Z,11
2022-11-02T02:57:27.467Z,11
2022-11-02T02:58:30.905Z,11
2022-11-02T02:59:33.341Z,11
2022-11-02T03:00:35.801Z,11
2022-11-02T03:01:39.498Z,11
2022-11-02T03:02:43.472Z,11
2022-11-02T03:03:46.495Z,11
2022-11-02T03:04:49.193Z,11
2022-11-02T03:05:52.621Z,11.1
2022-11-02T03:06:55.442Z,11
2022-11-02T03:07:58.535Z,11.1
2022-11-02T03:09:01.149Z,11.1
2022-11-02T03:10:05.256Z,11
2022-11-02T03:11:09.034Z,11
2022-11-02T03:12:12.302Z,11.1
2022-11-02T03:13:14.903Z,11.1
2022-11-02T03:14:18.192Z,11
2022-11-02T03:15:20.927Z,11
2022-11-02T03:16:23.823Z,11
2022-11-02T03:17:26.971Z,11.1
2022-11-02T03:18:29.622Z,11.1
2022-11-02T03:19:32.429Z,11.1
2022-11-02T03:20:35.491Z,11.1
2022-11-02T03:21:39.582Z,11.1
2022-11-02T03:22:42.573Z,11.1
2022-11-02T03:23:45.482Z,11.1
2022-11-02T03:24:48.013Z,11.1
2022-11-02T03:25:50.495Z,11.1
2022-11-02T03:26:54.383Z,11.1
2022-11-02T03:27:58.000Z,11.1
2022-11-02T03:29:01.635Z,11.1
2022-11-02T03:30:04.424Z,11.1
2022-11-02T03:31:06.676Z,11.1
2022-11-02T03:32:09.124Z,11.1
2022-11-02T03:33:12.233Z,11.1
2022-11-02T03:34:15.960Z,11.1
2022-11-02T03:35:18.809Z,11.1
2022-11-02T03:36:21.627Z,11.1
2022-11-02T03:37:24.502Z,11.1
2022-11-02T03:38:27.581Z,11.1
2022-11-02T03:39:30.592Z,11.2
2022-11-02T03:40:33.938Z,11.2
2022-11-02T03:41:37.044Z,11.1
2022-11-02T03:42:41.210Z,11.2
2022-11-02T03:43:44.280Z,11.1
2022-11-02T03:44:47.004Z,11.2
2022-11-02T03:45:49.739Z,11.2
2022-11-02T03:46:52.843Z,11.1
2022-11-02T03:47:55.644Z,11.2
2022-11-02T03:48:58.443Z,11.2
2022-11-02T03:50:02.540Z,11.2
2022-11-02T03:51:05.521Z,11.2
2022-11-02T03:52:08.793Z,11.2
2022-11-02T03:53:11.233Z,11.2
2022-11-02T03:54:14.113Z,11.2
2022-11-02T03:55:16.640Z,11.2
2022-11-02T03:56:18.575Z,11.2
2022-11-02T03:57:21.599Z,11.2
2022-11-02T03:58:25.798Z,11.2
2022-11-02T03:59:28.960Z,11.2
2022-11-02T04:00:31.558Z,11.2
2022-11-02T04:01:34.701Z,11.2
2022-11-02T04:02:38.048Z,11.2
2022-11-02T04:03:41.052Z,11.2
2022-11-02T04:04:44.569Z,11.2
2022-11-02T04:05:47.093Z,11.2
2022-11-02T04:06:50.241Z,11.2
2022-11-02T04:07:59.849Z,11.2
2022-11-02T04:09:02.012Z,11.2
2022-11-02T04:10:04.746Z,11.2
2022-11-02T04:11:07.185Z,11.2
2022-11-02T04:12:09.984Z,11.2
2022-11-02T04:13:12.816Z,11.2
2022-11-02T04:14:16.919Z,11.2
2022-11-02T04:15:19.698Z,11.2
2022-11-02T04:16:29.051Z,11.2
2022-11-02T04:18:34.419Z,11.2
2022-11-02T04:19:37.647Z,11.3
2022-11-02T04:20:41.182Z,11.3
2022-11-02T04:21:43.976Z,11.3
2022-11-02T04:22:46.773Z,11.3
2022-11-02T04:23:49.653Z,11.3
2022-11-02T04:24:52.441Z,11.3
2022-11-02T04:25:55.013Z,11.3
2022-11-02T04:26:57.832Z,11.3
2022-11-02T04:28:01.018Z,11.3
2022-11-02T04:29:05.218Z,11.3
2022-11-02T04:30:09.057Z,11.3
2022-11-02T04:31:11.925Z,11.3
2022-11-02T04:32:14.925Z,11.3
2022-11-02T04:33:17.361Z,11.4
2022-11-02T04:34:20.084Z,11.3
2022-11-02T04:35:22.334Z,11.4
2022-11-02T04:36:25.607Z,11.4
2022-11-02T04:37:28.576Z,11.4
2022-11-02T04:38:34.370Z,11.4
2022-11-02T04:39:37.728Z,11.4
2022-11-02T04:40:40.818Z,11.4
2022-11-02T04:41:43.951Z,11.4
2022-11-02T04:42:47.318Z,11.4
2022-11-02T04:43:50.112Z,11.4
2022-11-02T04:44:52.866Z,11.5
2022-11-02T04:45:57.067Z,11.5
2022-11-02T04:47:00.141Z,11.5
2022-11-02T04:48:04.455Z,11.5
2022-11-02T04:49:08.545Z,11.5
2022-11-02T04:50:11.257Z,11.5
2022-11-02T04:51:14.066Z,11.5
2022-11-02T04:52:16.578Z,11.5
2022-11-02T04:53:19.232Z,11.5
2022-11-02T04:54:22.380Z,11.5
2022-11-02T04:55:24.878Z,11.5
2022-11-02T04:56:28.055Z,11.5
2022-11-02T04:57:31.631Z,11.5
2022-11-02T04:58:34.604Z,11.5
2022-11-02T04:59:37.402Z,11.6
2022-11-02T05:00:40.711Z,11.6
2022-11-02T05:01:45.202Z,11.6
2022-11-02T05:02:49.028Z,11.6
2022-11-02T05:03:52.207Z,11.6
2022-11-02T05:04:55.641Z,11.6
2022-11-02T05:05:58.885Z,11.6
2022-11-02T05:07:02.848Z,11.6
2022-11-02T05:08:07.121Z,11.6
2022-11-02T05:09:10.727Z,11.6
2022-11-02T05:10:13.882Z,11.7
2022-11-02T05:11:17.317Z,11.7
2022-11-02T05:12:28.989Z,11.6
2022-11-02T05:13:32.146Z,11.6
2022-11-02T05:14:34.948Z,11.6
2022-11-02T05:15:37.268Z,11.7
2022-11-02T05:16:40.219Z,11.7
2022-11-02T05:17:44.378Z,11.7
2022-11-02T05:18:47.161Z,11.7
2022-11-02T05:19:50.035Z,11.7
2022-11-02T05:20:53.382Z,11.7
2022-11-02T05:21:56.180Z,11.7
2022-11-02T05:22:58.422Z,11.7
2022-11-02T05:24:01.689Z,11.7
2022-11-02T05:25:04.561Z,11.7
2022-11-02T05:26:07.655Z,11.7
2022-11-02T05:27:10.373Z,11.7
2022-11-02T05:28:13.254Z,11.8
2022-11-02T05:29:16.251Z,11.8
2022-11-02T05:30:19.403Z,11.8
2022-11-02T05:31:21.838Z,11.8
2022-11-02T05:32:24.893Z,11.7
2022-11-02T05:33:31.798Z,11.8
2022-11-02T05:34:34.036Z,11.8
2022-11-02T05:35:36.772Z,11.7
2022-11-02T05:36:39.483Z,11.7
2022-11-02T05:37:42.358Z,11.8
2022-11-02T05:38:45.456Z,11.7
2022-11-02T05:39:50.999Z,11.8
2022-11-02T05:40:53.426Z,11.8
2022-11-02T05:41:56.799Z,11.8
2022-11-02T05:42:59.402Z,11.7
2022-11-02T05:44:02.886Z,11.7
2022-11-02T05:45:06.341Z,11.7
2022-11-02T05:46:09.334Z,11.7
2022-11-02T05:47:13.063Z,11.7
2022-11-02T05:48:16.353Z,11.7
2022-11-02T05:49:20.147Z,11.7
2022-11-02T05:50:22.588Z,11.7
2022-11-02T05:51:25.307Z,11.7
2022-11-02T05:52:27.617Z,11.7
2022-11-02T05:53:31.064Z,11.7
2022-11-02T05:54:34.432Z,11.7
2022-11-02T05:55:37.237Z,11.7
2022-11-02T05:56:40.034Z,11.7
2022-11-02T05:57:43.384Z,11.7
2022-11-02T05:58:46.337Z,11.7
2022-11-02T05:59:50.580Z,11.7
2022-11-02T06:00:53.575Z,11.7
2022-11-02T06:01:57.075Z,11.7
2022-11-02T06:03:00.527Z,11.7
2022-11-02T06:04:05.313Z,11.7
2022-11-02T06:05:09.993Z,11.7
2022-11-02T06:06:13.699Z,11.7
2022-11-02T06:07:16.216Z,11.6
2022-11-02T06:08:19.364Z,11.7
2022-11-02T06:09:21.973Z,11.7
2022-11-02T06:10:24.485Z,11.6
2022-11-02T06:11:27.313Z,11.7
2022-11-02T06:12:30.115Z,11.7
2022-11-02T06:13:33.492Z,11.7
2022-11-02T06:14:36.389Z,11.7
2022-11-02T06:15:39.173Z,11.7
2022-11-02T06:16:42.170Z,11.7
2022-11-02T06:17:44.624Z,11.7
2022-11-02T06:18:48.637Z,11.7
2022-11-02T06:19:51.394Z,11.7
2022-11-02T06:20:55.486Z,11.7
2022-11-02T06:21:58.492Z,11.7
2022-11-02T06:23:01.332Z,11.7
2022-11-02T06:24:06.008Z,11.7
2022-11-02T06:25:08.882Z,11.7
2022-11-02T06:26:11.597Z,11.7
2022-11-02T06:27:14.996Z,11.7
2022-11-02T06:28:17.781Z,11.7
2022-11-02T06:29:21.199Z,11.7
2022-11-02T06:30:24.367Z,11.7
2022-11-02T06:31:27.443Z,11.7
2022-11-02T06:32:30.414Z,11.7
2022-11-02T06:33:33.784Z,11.7
2022-11-02T06:34:36.860Z,11.7
2022-11-02T06:35:39.692Z,11.7
2022-11-02T06:36:43.787Z,11.7
2022-11-02T06:37:46.302Z,11.7
2022-11-02T06:38:48.462Z,11.7
2022-11-02T06:39:51.002Z,11.7
2022-11-02T06:40:54.280Z,11.7
2022-11-02T06:41:57.312Z,11.7
2022-11-02T06:43:18.918Z,11.7
2022-11-02T06:44:25.116Z,11.7
2022-11-02T06:45:28.178Z,11.7
2022-11-02T06:46:30.884Z,11.7
2022-11-02T06:47:33.681Z,11.7
2022-11-02T06:48:36.964Z,11.7
2022-11-02T06:49:40.552Z,11.7
2022-11-02T06:50:43.721Z,11.7
2022-11-02T06:51:47.837Z,11.8
2022-11-02T06:52:51.225Z,11.7
2022-11-02T06:53:54.386Z,11.7
2022-11-02T06:54:57.855Z,11.7
2022-11-02T06:56:01.221Z,11.7
2022-11-02T06:57:03.919Z,11.7
2022-11-02T06:58:07.017Z,11.8
2022-11-02T06:59:10.081Z,11.8
2022-11-02T07:00:21.127Z,11.8
2022-11-02T07:01:27.312Z,11.8
2022-11-02T07:02:31.480Z,11.8
2022-11-02T07:03:35.297Z,11.9
2022-11-02T07:04:38.210Z,11.9
2022-11-02T07:05:41.306Z,11.9
2022-11-02T07:06:44.171Z,11.9
2022-11-02T07:07:48.329Z,11.9
2022-11-02T07:08:50.780Z,11.9
2022-11-02T07:09:53.290Z,12
2022-11-02T07:10:56.168Z,12
2022-11-02T07:11:59.265Z,12
2022-11-02T07:13:03.153Z,12
2022-11-02T07:14:08.187Z,12
2022-11-02T07:15:11.681Z,12.1
2022-11-02T07:16:14.675Z,12.1
2022-11-02T07:17:16.842Z,12.1
2022-11-02T07:18:19.993Z,12.1
2022-11-02T07:19:23.165Z,12.2
2022-11-02T07:20:26.156Z,12.2
2022-11-02T07:21:29.881Z,12.2
2022-11-02T07:22:32.656Z,12.2
2022-11-02T07:23:36.808Z,12.2
2022-11-02T07:24:39.396Z,12.2
2022-11-02T07:25:42.796Z,12.3
2022-11-02T07:26:45.502Z,12.3
2022-11-02T07:27:48.780Z,12.3
2022-11-02T07:29:00.026Z,12.3
2022-11-02T07:30:02.825Z,12.4
2022-11-02T07:31:05.989Z,12.4
2022-11-02T07:32:08.936Z,12.4
2022-11-02T07:33:12.000Z,12.5
2022-11-02T07:34:18.239Z,12.5
2022-11-02T07:35:21.230Z,12.6
2022-11-02T07:36:24.380Z,12.6
2022-11-02T07:37:27.847Z,12.7
2022-11-02T07:38:31.233Z,12.7
2022-11-02T07:39:35.145Z,12.7
2022-11-02T07:40:37.663Z,12.8
2022-11-02T07:41:39.918Z,12.8
2022-11-02T07:42:42.736Z,12.8
2022-11-02T07:43:45.469Z,12.9
2022-11-02T07:44:48.536Z,12.9
2022-11-02T07:45:51.894Z,13
2022-11-02T07:46:55.410Z,13
2022-11-02T07:47:58.503Z,13.1
2022-11-02T07:49:02.247Z,13.1
2022-11-02T07:50:05.592Z,13.2
2022-11-02T07:51:09.050Z,13.2
2022-11-02T07:52:12.236Z,13.3
2022-11-02T07:53:15.692Z,13.3
2022-11-02T07:54:18.897Z,13.4
2022-11-02T07:55:23.037Z,13.4
2022-11-02T07:56:26.306Z,13.4
2022-11-02T07:57:29.119Z,13.4
2022-11-02T07:58:32.227Z,13.5
2022-11-02T07:59:34.937Z,13.5
2022-11-02T08:00:38.275Z,13.6
2022-11-02T08:01:41.884Z,13.6
2022-11-02T08:02:45.944Z,13.6
2022-11-02T08:03:49.380Z,13.6
2022-11-02T08:04:52.108Z,13.7
2022-11-02T08:05:55.831Z,13.7
2022-11-02T08:06:58.715Z,13.7
2022-11-02T08:08:03.643Z,13.8
2022-11-02T08:09:08.124Z,13.8
2022-11-02T08:10:11.057Z,13.8
2022-11-02T08:11:15.173Z,13.9
2022-11-02T08:12:17.966Z,13.9
2022-11-02T08:13:20.777Z,14
2022-11-02T08:14:23.761Z,14
2022-11-02T08:15:26.853Z,14
2022-11-02T08:16:30.024Z,14.1
2022-11-02T08:17:33.216Z,14.2
2022-11-02T08:18:36.287Z,14.2
2022-11-02T08:19:39.207Z,14.3
2022-11-02T08:20:42.289Z,14.2
2022-11-02T08:21:45.436Z,14.3
2022-11-02T08:22:48.787Z,14.3
2022-11-02T08:23:58.997Z,14.3
2022-11-02T08:25:02.357Z,14.3
2022-11-02T08:26:05.850Z,14.3
2022-11-02T08:27:10.077Z,14.3
2022-11-02T08:28:13.171Z,14.3
2022-11-02T08:29:17.182Z,14.2
2022-11-02T08:30:19.994Z,14.3
2022-11-02T08:31:22.517Z,14.3
2022-11-02T08:32:25.976Z,14.3
2022-11-02T08:33:29.413Z,14.4
2022-11-02T08:34:32.830Z,14.4
2022-11-02T08:35:36.099Z,14.5
2022-11-02T08:36:39.179Z,14.5
2022-11-02T08:37:42.793Z,14.6
2022-11-02T08:38:45.969Z,14.6
2022-11-02T08:39:48.839Z,14.7
2022-11-02T08:40:52.287Z,14.8
2022-11-02T08:41:55.439Z,14.8
2022-11-02T08:42:59.526Z,14.9
2022-11-02T08:44:02.982Z,14.9
2022-11-02T08:45:06.489Z,15
2022-11-02T08:46:17.737Z,15
2022-11-02T08:47:21.496Z,15.1
2022-11-02T08:48:24.946Z,15.2
2022-11-02T08:49:27.674Z,15.2
2022-11-02T08:50:30.887Z,15.3
2022-11-02T08:51:34.552Z,15.4
2022-11-02T08:52:41.517Z,15.5
2022-11-02T08:53:52.273Z,15.5
2022-11-02T08:54:55.901Z,15.6
2022-11-02T08:55:59.550Z,15.6
2022-11-02T08:57:02.534Z,15.7
2022-11-02T08:58:07.881Z,15.8
2022-11-02T08:59:11.214Z,15.8
2022-11-02T09:00:14.116Z,15.9
2022-11-02T09:01:17.479Z,15.9
2022-11-02T09:02:20.841Z,16
2022-11-02T09:03:28.010Z,16
2022-11-02T09:04:31.004Z,16.1
2022-11-02T09:05:34.353Z,16.1
2022-11-02T09:06:37.716Z,16.2
2022-11-02T09:07:41.067Z,16.3
2022-11-02T09:08:44.058Z,16.3
2022-11-02T09:09:47.509Z,16.4
2022-11-02T09:10:50.965Z,16.4
2022-11-02T09:11:54.062Z,16.4
2022-11-02T09:12:57.178Z,16.4
2022-11-02T09:14:01.291Z,16.4
2022-11-02T09:15:04.269Z,16.4
2022-11-02T09:16:07.276Z,16.4
2022-11-02T09:17:09.800Z,16.4
2022-11-02T09:18:12.646Z,16.3
2022-11-02T09:19:15.831Z,16.3
2022-11-02T09:20:18.723Z,16.3
2022-11-02T09:21:21.625Z,16.3
2022-11-02T09:22:24.789Z,16.3
2022-11-02T09:23:27.604Z,16.3
2022-11-02T09:24:30.397Z,16.3
2022-11-02T09:25:32.648Z,16.3
2022-11-02T09:26:36.102Z,16.2
2022-11-02T09:27:39.241Z,16.3
2022-11-02T09:28:42.376Z,16.2
2022-11-02T09:29:46.256Z,16.2
2022-11-02T09:30:49.277Z,16.2
2022-11-02T09:31:52.103Z,16.2
2022-11-02T09:32:55.555Z,16.2
2022-11-02T09:33:58.083Z,16.1
2022-11-02T09:35:01.994Z,16.2
2022-11-02T09:36:05.462Z,16.2
2022-11-02T09:37:08.322Z,16.2
2022-11-02T09:38:11.040Z,16.2
2022-11-02T09:39:14.106Z,16.2
2022-11-02T09:40:17.374Z,16.2
2022-11-02T09:41:20.549Z,16.2
2022-11-02T09:42:23.343Z,16.2
2022-11-02T09:43:33.444Z,16.2
2022-11-02T09:44:36.213Z,16.2
2022-11-02T09:45:40.881Z,16.2
2022-11-02T09:46:43.712Z,16.2
2022-11-02T09:48:27.970Z,16.1
2022-11-02T09:49:34.228Z,16.2
2022-11-02T09:50:37.718Z,16.3
2022-11-02T09:51:41.465Z,16.3
2022-11-02T09:52:44.534Z,16.3
2022-11-02T09:53:48.253Z,16.4
2022-11-02T09:54:51.728Z,16.4
2022-11-02T09:55:54.324Z,16.4
2022-11-02T09:56:56.854Z,16.4
2022-11-02T09:57:59.928Z,16.4
2022-11-02T09:59:02.555Z,16.3
2022-11-02T10:00:05.965Z,16.3
2022-11-02T10:01:10.127Z,16.3
2022-11-02T10:02:13.420Z,16.3
2022-11-02T10:03:16.253Z,16.2
2022-11-02T10:04:19.714Z,16.2
2022-11-02T10:05:23.485Z,16.2
2022-11-02T10:06:27.226Z,16.2
2022-11-02T10:07:30.340Z,16.2
2022-11-02T10:08:33.792Z,16.2
2022-11-02T10:09:37.258Z,16.1
2022-11-02T10:10:40.358Z,16.1
2022-11-02T10:11:43.601Z,16.1
2022-11-02T10:12:46.052Z,16
2022-11-02T10:13:57.421Z,16
2022-11-02T10:15:01.122Z,16
2022-11-02T10:16:04.345Z,16
2022-11-02T10:17:08.218Z,16
2022-11-02T10:18:10.927Z,15.9
2022-11-02T10:19:13.651Z,15.9
2022-11-02T10:20:17.377Z,15.9
2022-11-02T10:21:21.198Z,15.9
2022-11-02T10:22:24.657Z,15.9
2022-11-02T10:23:27.835Z,15.9
2022-11-02T10:24:31.566Z,15.9
2022-11-02T10:25:34.920Z,15.9
2022-11-02T10:26:37.999Z,15.9
2022-11-02T10:27:41.692Z,15.9
2022-11-02T10:28:44.757Z,15.9
2022-11-02T10:29:48.753Z,15.9
2022-11-02T10:30:51.574Z,15.9
2022-11-02T10:31:54.785Z,15.9
2022-11-02T10:32:58.909Z,15.8
2022-11-02T10:34:01.719Z,15.8
2022-11-02T10:35:57.544Z,15.8
2022-11-02T10:37:22.397Z,15.8
2022-11-02T10:38:25.478Z,15.9
2022-11-02T10:39:28.312Z,15.9
2022-11-02T10:40:30.821Z,15.9
2022-11-02T10:41:33.641Z,15.9
2022-11-02T10:42:36.258Z,15.9
2022-11-02T10:43:39.142Z,15.9
2022-11-02T10:44:42.334Z,15.9
2022-11-02T10:45:45.196Z,16
2022-11-02T10:46:48.283Z,16
2022-11-02T10:47:51.047Z,16.1
2022-11-02T10:48:55.232Z,16.1
2022-11-02T10:49:58.019Z,16.2
2022-11-02T10:51:01.389Z,16.2
2022-11-02T10:52:04.792Z,16.3
2022-11-02T10:53:42.477Z,16.3
2022-11-02T10:54:48.700Z,16.4
2022-11-02T10:55:51.581Z,16.4
2022-11-02T10:56:54.642Z,16.5
2022-11-02T10:57:57.463Z,16.5
2022-11-02T10:59:00.626Z,16.5
2022-11-02T11:00:04.246Z,16.5
2022-11-02T11:01:07.615Z,16.5
2022-11-02T11:02:11.822Z,16.5
2022-11-02T11:03:14.376Z,16.6
2022-11-02T11:04:18.461Z,16.6
2022-11-02T11:05:22.250Z,16.6
2022-11-02T11:06:26.261Z,16.8
2022-11-02T11:07:29.267Z,16.9
2022-11-02T11:08:33.050Z,17.1
2022-11-02T11:09:36.501Z,17.2
2022-11-02T11:10:40.476Z,17.3
2022-11-02T11:11:44.488Z,17.4
2022-11-02T11:12:47.277Z,17.4
2022-11-02T11:16:55.051Z,17.4
2022-11-02T11:20:42.567Z,17.4
2022-11-02T11:21:45.839Z,17.3
2022-11-02T11:22:48.326Z,17.4
2022-11-02T11:23:51.395Z,17.3
2022-11-02T11:24:54.552Z,17.4
2022-11-02T11:25:57.997Z,17.4
2022-11-02T11:27:01.409Z,17.4
2022-11-02T11:28:05.905Z,17.4
2022-11-02T11:29:09.964Z,17.3
2022-11-02T11:30:13.763Z,17.3
2022-11-02T11:32:01.625Z,17.2
2022-11-02T11:33:05.344Z,17.2
2022-11-02T11:34:08.860Z,17.1
2022-11-02T11:35:11.897Z,17
2022-11-02T11:36:16.305Z,17
2022-11-02T11:37:20.062Z,16.9
2022-11-02T11:38:22.613Z,16.9
2022-11-02T11:39:26.284Z,16.8
2022-11-02T11:40:28.876Z,16.8
2022-11-02T11:41:31.965Z,16.7
2022-11-02T11:42:34.315Z,16.7
2022-11-02T11:43:37.442Z,16.6
2022-11-02T11:44:39.952Z,16.6
2022-11-02T11:45:42.277Z,16.5
2022-11-02T11:46:45.284Z,16.5
2022-11-02T11:47:48.196Z,16.4
2022-11-02T11:48:51.395Z,16.3
2022-11-02T11:50:28.038Z,16.2
2022-11-02T11:51:35.869Z,16.2
2022-11-02T11:52:38.775Z,16.1
2022-11-02T11:53:42.037Z,15.9
2022-11-02T11:54:45.116Z,15.8
2022-11-02T11:55:47.564Z,15.8
2022-11-02T11:56:50.158Z,15.6
2022-11-02T11:57:53.324Z,15.5
2022-11-02T11:58:57.122Z,15.5
2022-11-02T12:00:00.749Z,15.4
2022-11-02T12:01:11.753Z,15.3
2022-11-02T12:02:15.902Z,15.2
2022-11-02T12:03:21.322Z,15.1
2022-11-02T12:04:24.735Z,15
2022-11-02T12:05:28.108Z,15
2022-11-02T12:06:31.225Z,14.9
2022-11-02T12:07:35.351Z,14.8
2022-11-02T12:08:38.157Z,14.7
2022-11-02T12:09:41.535Z,14.7
2022-11-02T12:10:44.727Z,14.6
2022-11-02T12:11:47.878Z,14.6
2022-11-02T12:12:50.984Z,14.6
2022-11-02T12:13:54.475Z,14.6
2022-11-02T12:15:02.628Z,14.7
2022-11-02T12:16:10.044Z,14.7
2022-11-02T12:17:13.416Z,14.8
2022-11-02T12:18:16.295Z,14.8
2022-11-02T12:19:19.035Z,14.8
2022-11-02T12:20:22.049Z,14.8
2022-11-02T12:21:25.650Z,14.8
2022-11-02T12:22:29.407Z,14.8
2022-11-02T12:23:33.560Z,14.8
2022-11-02T12:24:36.719Z,14.8
2022-11-02T12:25:39.993Z,14.9
2022-11-02T12:26:42.515Z,14.9
2022-11-02T12:27:45.876Z,15
2022-11-02T12:28:49.084Z,15
2022-11-02T12:29:52.326Z,15.1
2022-11-02T12:30:55.938Z,15.2
2022-11-02T12:32:01.831Z,15.3
2022-11-02T12:33:05.909Z,15.4
2022-11-02T12:34:10.462Z,15.5
2022-11-02T12:35:31.422Z,15.6
2022-11-02T12:36:34.934Z,15.7
2022-11-02T12:38:43.238Z,15.8
2022-11-02T12:39:46.713Z,15.9
2022-11-02T12:40:50.502Z,15.9
2022-11-02T12:41:53.628Z,16
2022-11-02T12:42:56.633Z,16.1
2022-11-02T12:43:59.622Z,16.1
2022-11-02T12:45:02.802Z,16.2
2022-11-02T12:46:06.193Z,16.2
2022-11-02T12:47:08.909Z,16.3
2022-11-02T12:48:11.911Z,16.3
2022-11-02T12:49:15.096Z,16.4
2022-11-02T12:50:18.105Z,16.4
2022-11-02T12:51:21.275Z,16.5
2022-11-02T12:52:24.378Z,16.5
2022-11-02T12:53:27.993Z,16.5
2022-11-02T12:54:31.530Z,16.4
2022-11-02T12:55:39.662Z,16.4
2022-11-02T12:56:42.708Z,16.4
2022-11-02T12:57:45.145Z,16.3
2022-11-02T12:58:48.488Z,16.3
2022-11-02T12:59:51.199Z,16.3
2022-11-02T13:00:54.356Z,16.3
2022-11-02T13:01:58.814Z,16.3
2022-11-02T13:03:03.414Z,16.3
2022-11-02T13:04:07.334Z,16.3
2022-11-02T13:05:10.147Z,16.3
2022-11-02T13:06:12.855Z,16.3
2022-11-02T13:07:15.588Z,16.3
2022-11-02T13:08:19.265Z,16.3
2022-11-02T13:09:21.979Z,16.4
2022-11-02T13:10:25.804Z,16.4
2022-11-02T13:11:29.640Z,16.4
2022-11-02T13:12:32.367Z,16.4
2022-11-02T13:13:35.083Z,16.4
2022-11-02T13:14:38.571Z,16.4
2022-11-02T13:15:41.953Z,16.4
2022-11-02T13:16:44.926Z,16.3
2022-11-02T13:17:48.370Z,16.3
2022-11-02T13:18:52.374Z,16.2
2022-11-02T13:19:54.909Z,16.2
2022-11-02T13:20:57.983Z,16.1
2022-11-02T13:22:01.488Z,16
2022-11-02T13:23:05.775Z,16
2022-11-02T13:24:10.641Z,15.9
2022-11-02T13:25:13.984Z,15.9
2022-11-02T13:26:17.986Z,15.9
2022-11-02T13:27:40.427Z,15.8
2022-11-02T13:28:43.785Z,15.8
2022-11-02T13:29:47.452Z,15.7
2022-11-02T13:30:50.173Z,15.6
2022-11-02T13:31:53.319Z,15.6
2022-11-02T13:32:56.971Z,15.5
2022-11-02T13:34:00.614Z,15.5
2022-11-02T13:35:03.478Z,15.4
2022-11-02T13:36:06.553Z,15.4
2022-11-02T13:37:09.644Z,15.3
2022-11-02T13:38:13.096Z,15.3
2022-11-02T13:39:15.949Z,15.2
2022-11-02T13:40:18.934Z,15.2
2022-11-02T13:41:22.456Z,15.2
2022-11-02T13:42:26.202Z,15.1
2022-11-02T13:43:28.633Z,15.1
2022-11-02T13:44:31.810Z,15.1
2022-11-02T13:45:34.639Z,15
2022-11-02T13:46:37.850Z,15
2022-11-02T13:47:41.301Z,15
2022-11-02T13:48:45.011Z,14.9
2022-11-02T13:49:47.984Z,14.9
2022-11-02T13:50:51.408Z,14.9
2022-11-02T13:51:55.076Z,14.9
2022-11-02T13:52:57.585Z,14.9
2022-11-02T13:54:00.675Z,14.9
2022-11-02T13:55:04.736Z,14.8
2022-11-02T13:56:07.553Z,14.8
2022-11-02T13:57:10.724Z,14.8
2022-11-02T13:58:14.225Z,14.8
2022-11-02T13:59:17.580Z,14.8
2022-11-02T14:00:20.365Z,14.8
2022-11-02T14:01:23.853Z,14.8
2022-11-02T14:02:27.776Z,14.8
2022-11-02T14:03:31.362Z,14.8
2022-11-02T14:04:34.431Z,14.8
2022-11-02T14:05:37.044Z,14.8
2022-11-02T14:06:39.573Z,14.8
2022-11-02T14:07:42.096Z,14.8
2022-11-02T14:08:44.893Z,14.8
2022-11-02T14:09:48.245Z,14.8
2022-11-02T14:10:51.144Z,14.8
2022-11-02T14:11:53.966Z,14.8
2022-11-02T14:12:57.119Z,14.8
2022-11-02T14:14:00.918Z,14.8
2022-11-02T14:15:04.352Z,14.8
2022-11-02T14:16:07.166Z,14.8
2022-11-02T14:17:09.724Z,14.8
2022-11-02T14:18:13.187Z,14.8
2022-11-02T14:19:21.348Z,14.8
2022-11-02T14:20:24.803Z,14.8
2022-11-02T14:21:27.892Z,14.8
2022-11-02T14:22:30.951Z,14.8
2022-11-02T14:23:34.394Z,14.9